Grande Europa — ICGE — position and weather

sailwx.info

Track history (hours):
 
Tides and Currents Weather Stations Pressure Air Temp Water Temp Dewpoint Dewpoint Depression Visibility Wind Speed Wind Dir Waves Ship Positions

Grande Europa

Last reported at 2016-Dec-05 01:33 UTC. Time now 2016-Dec-05 18:38 UTC.
Position N 39°03' E 015°19'.

Length 183 m; draft 7.9 m.

Type: Cargo ship. MMSI: 247206000.

Date/timePositionNaut miles runAvg speedWind from/ knotsBaromVisibWave heightAir tempDewpointWater temp
2016-Dec-05 01:33N 39°03' E 015°19'1919.2
2016-Dec-05 00:33N 38°45' E 015°28'1918.9
2016-Dec-04 23:33N 38°27' E 015°38'1515.4
2016-Dec-04 22:33N 38°12' E 015°37'1818.2
2016-Dec-04 21:33N 37°54' E 015°38'1919.0
2016-Dec-04 20:33N 37°46' E 015°60'  
2016-Dec-02 07:33N 31°51' E 034°38'1 0.1
2016-Dec-01 16:31N 31°53' E 034°37'2 0.1
2016-Nov-30 13:28N 31°51' E 034°38'2 1.8
2016-Nov-30 12:31N 31°52' E 034°37'4 0.2
2016-Nov-29 15:17N 31°50' E 034°34'0 0.0
2016-Nov-29 14:32N 31°50' E 034°34'0 0.0
2016-Nov-29 13:32N 31°50' E 034°34'160 3.3
2016-Nov-27 13:25N 34°14' E 033°12'1517.5
2016-Nov-27 12:33N 34°29' E 033°07'1111.3
2016-Nov-27 11:33N 34°39' E 033°01'0 0.0
2016-Nov-27 10:33N 34°39' E 033°01'0 0.0
2016-Nov-27 09:34N 34°39' E 033°01'0 0.0
2016-Nov-27 08:33N 34°39' E 033°01'0 0.0
2016-Nov-27 07:34N 34°39' E 033°01'0 0.0
2016-Nov-27 06:33N 34°39' E 033°01'0 0.0
2016-Nov-27 05:33N 34°39' E 033°01'0 0.1
2016-Nov-27 04:33N 34°39' E 033°01'7 7.4
2016-Nov-27 03:33N 34°33' E 033°05'  
Track history (hours):
 
Tides and Currents Weather Stations Pressure Air Temp Water Temp Dewpoint Dewpoint Depression Visibility Wind Speed Wind Dir Waves Ship Positions

Grande Europa

Last reported at 2016-Dec-05 01:33 UTC. Time now 2016-Dec-05 18:38 UTC.
Position N 39°03' E 015°19'.

Length 183 m; draft 7.9 m.

Type: Cargo ship. MMSI: 247206000.

Date/timePositionNaut miles runAvg speedWind from/ knotsBaromVisibWave heightAir tempDewpointWater temp
2016-Dec-05 01:33N 39°03' E 015°19'1919.2
2016-Dec-05 00:33N 38°45' E 015°28'1918.9
2016-Dec-04 23:33N 38°27' E 015°38'1515.4
2016-Dec-04 22:33N 38°12' E 015°37'1818.2
2016-Dec-04 21:33N 37°54' E 015°38'1919.0
2016-Dec-04 20:33N 37°46' E 015°60'  
2016-Dec-02 07:33N 31°51' E 034°38'1 0.1
2016-Dec-01 16:31N 31°53' E 034°37'2 0.1
2016-Nov-30 13:28N 31°51' E 034°38'2 1.8
2016-Nov-30 12:31N 31°52' E 034°37'4 0.2
2016-Nov-29 15:17N 31°50' E 034°34'0 0.0
2016-Nov-29 14:32N 31°50' E 034°34'0 0.0
2016-Nov-29 13:32N 31°50' E 034°34'160 3.3
2016-Nov-27 13:25N 34°14' E 033°12'1517.5
2016-Nov-27 12:33N 34°29' E 033°07'1111.3
2016-Nov-27 11:33N 34°39' E 033°01'0 0.0
2016-Nov-27 10:33N 34°39' E 033°01'0 0.0
2016-Nov-27 09:34N 34°39' E 033°01'0 0.0
2016-Nov-27 08:33N 34°39' E 033°01'0 0.0
2016-Nov-27 07:34N 34°39' E 033°01'0 0.0
2016-Nov-27 06:33N 34°39' E 033°01'0 0.0
2016-Nov-27 05:33N 34°39' E 033°01'0 0.1
2016-Nov-27 04:33N 34°39' E 033°01'7 7.4
2016-Nov-27 03:33N 34°33' E 033°05'  

Dump ship's entire track history